Time;durP1;ratioP1;P1;durP2;ratioP2;P2;SDS_P1;SDS_P2;PMS_P1;PMS_P2;Temp;Humidity;BMP_temperature;BMP_pressure;BME280_temperature;BME280_humidity;BME280_pressure;Samples;Min_cycle;Max_cycle;Signal;HPM_P1;HPM_P2
2022/05/21 00:00:14;;;;;;;18.90;3.83;;;;;;;;;;5086622;28;20024;-68
2022/05/21 00:02:39;;;;;;;16.67;4.10;;;;;;;;;;5084124;28;20016;-67
2022/05/21 00:05:04;;;;;;;15.23;3.72;;;;;;;;;;5086186;28;20467;-67
2022/05/21 00:07:30;;;;;;;17.13;3.90;;;;;;;;;;5078241;28;20059;-68
2022/05/21 00:09:55;;;;;;;19.10;4.03;;;;;;;;;;5081760;28;20424;-67
2022/05/21 00:12:21;;;;;;;19.70;4.43;;;;;;;;;;5084924;28;20028;-69
2022/05/21 00:14:46;;;;;;;14.02;3.50;;;;;;;;;;5083778;28;20812;-67
2022/05/21 00:17:11;;;;;;;18.58;3.47;;;;;;;;;;5085097;28;20357;-68
2022/05/21 00:19:36;;;;;;;19.80;4.95;;;;;;;;;;5096741;28;20055;-68
2022/05/21 00:22:02;;;;;;;19.60;3.83;;;;;;;;;;5100865;28;20102;-67
2022/05/21 00:24:28;;;;;;;17.25;4.15;;;;;;;;;;5103784;28;20189;-67
2022/05/21 00:26:53;;;;;;;16.48;3.85;;;;;;;;;;5091310;28;20378;-68
2022/05/21 00:29:20;;;;;;;18.88;4.75;;;;;;;;;;5066771;28;20063;-67
2022/05/21 00:31:45;;;;;;;23.75;5.13;;;;;;;;;;5083900;28;20100;-68
2022/05/21 00:34:10;;;;;;;19.95;4.72;;;;;;;;;;5085277;28;20035;-67
2022/05/21 00:36:38;;;;;;;17.70;4.88;;;;;;;;;;5081480;28;20182;-68
2022/05/21 00:39:03;;;;;;;15.98;4.97;;;;;;;;;;5065345;28;20172;-66
2022/05/21 00:41:31;;;;;;;23.45;4.53;;;;;;;;;;5083703;28;20019;-68
2022/05/21 00:43:57;;;;;;;21.13;4.38;;;;;;;;;;5084368;28;20119;-67
2022/05/21 00:46:34;;;;;;;27.20;5.18;;;;;;;;;;5086082;28;20050;-67
2022/05/21 00:48:59;;;;;;;24.98;4.80;;;;;;;;;;5084455;28;20442;-67
2022/05/21 00:51:26;;;;;;;20.88;5.40;;;;;;;;;;5082838;28;20023;-66
2022/05/21 00:53:52;;;;;;;25.63;4.95;;;;;;;;;;5078678;28;20816;-68
2022/05/21 00:56:18;;;;;;;19.00;4.70;;;;;;;;;;5084237;28;20032;-67
2022/05/21 01:01:30;;;;;;;27.23;5.65;;;;;;;;;;5104090;28;20034;-66
2022/05/21 01:03:56;;;;;;;23.52;5.32;;;;;;;;;;5094214;28;20105;-68
2022/05/21 01:06:21;;;;;;;26.85;5.18;;;;;;;;;;5082908;28;20474;-67
2022/05/21 01:08:47;;;;;;;20.25;4.88;;;;;;;;;;5081274;28;20186;-68
2022/05/21 01:11:14;;;;;;;22.13;4.80;;;;;;;;;;5085691;28;20494;-67
2022/05/21 01:13:41;;;;;;;28.63;5.20;;;;;;;;;;5085173;28;20016;-67
2022/05/21 01:16:07;;;;;;;28.15;5.90;;;;;;;;;;5085892;28;20020;-69
2022/05/21 01:18:35;;;;;;;22.52;5.32;;;;;;;;;;5084385;28;20397;-67
2022/05/21 01:21:01;;;;;;;31.33;5.22;;;;;;;;;;5081345;28;20020;-68
2022/05/21 01:23:26;;;;;;;27.23;5.20;;;;;;;;;;5082292;28;20031;-68
2022/05/21 01:25:56;;;;;;;20.08;5.10;;;;;;;;;;5083947;28;20414;-67
2022/05/21 01:28:22;;;;;;;23.13;4.53;;;;;;;;;;5086052;28;20032;-67
2022/05/21 01:30:57;;;;;;;25.05;5.82;;;;;;;;;;5100013;28;20119;-67
2022/05/21 01:33:28;;;;;;;31.48;6.13;;;;;;;;;;5102802;28;20068;-68
2022/05/21 01:35:54;;;;;;;29.23;5.75;;;;;;;;;;5102127;28;20102;-68
2022/05/21 01:38:22;;;;;;;25.35;5.03;;;;;;;;;;5079134;28;20035;-67
2022/05/21 01:40:48;;;;;;;25.42;5.47;;;;;;;;;;5085637;28;20080;-68
2022/05/21 01:46:00;;;;;;;24.33;5.82;;;;;;;;;;5083626;28;20027;-67
2022/05/21 01:48:27;;;;;;;24.73;5.07;;;;;;;;;;5084005;28;20421;-68
2022/05/21 01:50:53;;;;;;;28.88;5.22;;;;;;;;;;5082356;28;20026;-68
2022/05/21 01:53:22;;;;;;;29.23;4.82;;;;;;;;;;5082083;28;20020;-68
2022/05/21 01:55:48;;;;;;;27.05;5.65;;;;;;;;;;5096513;28;20015;-67
2022/05/21 01:58:15;;;;;;;30.77;5.32;;;;;;;;;;5108795;28;20031;-68
2022/05/21 02:00:41;;;;;;;28.00;4.75;;;;;;;;;;5088665;28;20023;-67
2022/05/21 02:03:07;;;;;;;30.73;6.30;;;;;;;;;;5107124;28;20031;-68
2022/05/21 02:05:32;;;;;;;24.98;5.43;;;;;;;;;;5107098;28;20016;-67
2022/05/21 02:07:57;;;;;;;23.40;5.13;;;;;;;;;;5094279;28;20623;-68
2022/05/21 02:10:23;;;;;;;29.55;5.13;;;;;;;;;;5086379;28;20059;-67
2022/05/21 02:12:48;;;;;;;22.73;5.13;;;;;;;;;;5084528;28;20487;-67
2022/05/21 02:15:14;;;;;;;19.48;4.57;;;;;;;;;;5086680;28;20050;-68
2022/05/21 02:17:40;;;;;;;22.15;5.50;;;;;;;;;;5085762;28;20442;-68
2022/05/21 02:20:05;;;;;;;19.88;5.15;;;;;;;;;;5086379;28;20123;-68
2022/05/21 02:22:31;;;;;;;24.52;5.30;;;;;;;;;;5084452;28;20020;-67
2022/05/21 02:24:56;;;;;;;24.92;5.40;;;;;;;;;;5083639;28;20580;-68
2022/05/21 02:27:21;;;;;;;30.50;6.18;;;;;;;;;;5086057;28;20028;-67
2022/05/21 02:29:46;;;;;;;25.17;5.53;;;;;;;;;;5085416;28;20073;-67
2022/05/21 02:32:12;;;;;;;23.83;4.88;;;;;;;;;;5087863;28;20034;-67
2022/05/21 02:34:50;;;;;;;21.25;4.63;;;;;;;;;;5093354;28;20118;-71
2022/05/21 02:39:59;;;;;;;28.85;5.38;;;;;;;;;;5103945;28;20034;-68
2022/05/21 02:42:43;;;;;;;29.60;5.78;;;;;;;;;;5107292;28;20377;-68
2022/05/21 02:45:08;;;;;;;26.25;5.07;;;;;;;;;;5078752;28;20433;-67
2022/05/21 02:47:34;;;;;;;28.58;5.35;;;;;;;;;;5070014;28;20249;-67
2022/05/21 02:49:59;;;;;;;27.63;4.63;;;;;;;;;;5069783;28;20154;-69
2022/05/21 02:52:24;;;;;;;29.83;5.03;;;;;;;;;;5083111;28;20173;-66
2022/05/21 02:54:50;;;;;;;22.15;5.18;;;;;;;;;;5085128;28;20020;-69
2022/05/21 02:57:15;;;;;;;27.02;5.63;;;;;;;;;;5086938;28;20118;-69
2022/05/21 02:59:51;;;;;;;25.05;5.93;;;;;;;;;;5088164;28;20528;-68
2022/05/21 03:02:17;;;;;;;22.40;4.97;;;;;;;;;;5087383;28;20023;-66
2022/05/21 03:04:45;;;;;;;23.17;5.70;;;;;;;;;;5086016;28;20028;-69
2022/05/21 03:07:11;;;;;;;22.38;4.85;;;;;;;;;;5080334;28;20364;-68
2022/05/21 03:12:20;;;;;;;22.20;4.57;;;;;;;;;;5110581;28;20074;-68
2022/05/21 03:14:45;;;;;;;18.83;4.65;;;;;;;;;;5106949;28;20020;-67
2022/05/21 03:17:11;;;;;;;23.65;5.13;;;;;;;;;;5107443;28;20032;-67
2022/05/21 03:19:37;;;;;;;25.13;5.03;;;;;;;;;;5107615;28;20015;-70
2022/05/21 03:22:02;;;;;;;28.40;4.65;;;;;;;;;;5085817;28;20016;-67
2022/05/21 03:24:28;;;;;;;19.90;4.47;;;;;;;;;;5085469;28;20344;-67
2022/05/21 03:26:54;;;;;;;20.00;4.55;;;;;;;;;;5085142;28;20020;-67
2022/05/21 03:29:20;;;;;;;27.55;4.60;;;;;;;;;;5086622;28;20020;-68
2022/05/21 03:31:48;;;;;;;25.63;4.70;;;;;;;;;;5086051;28;20021;-68
2022/05/21 03:34:13;;;;;;;20.50;4.65;;;;;;;;;;5088076;28;20431;-68
2022/05/21 03:36:49;;;;;;;20.75;3.95;;;;;;;;;;5082264;28;20028;-69
2022/05/21 03:39:14;;;;;;;22.15;4.80;;;;;;;;;;5085226;28;20489;-68
2022/05/21 03:41:40;;;;;;;19.40;4.80;;;;;;;;;;5087067;28;20056;-68
2022/05/21 03:44:05;;;;;;;17.77;4.45;;;;;;;;;;5085725;28;20030;-68
2022/05/21 03:46:34;;;;;;;28.38;5.13;;;;;;;;;;5086435;28;20027;-68
2022/05/21 03:48:59;;;;;;;21.30;4.55;;;;;;;;;;5083942;28;20016;-67
2022/05/21 03:51:24;;;;;;;17.27;4.72;;;;;;;;;;5085776;28;20028;-66
2022/05/21 03:53:49;;;;;;;17.27;4.10;;;;;;;;;;5078997;28;20031;-66
2022/05/21 03:56:15;;;;;;;17.60;4.28;;;;;;;;;;5085970;28;20027;-66
2022/05/21 03:58:40;;;;;;;19.67;3.83;;;;;;;;;;5084590;28;20024;-68
2022/05/21 04:01:05;;;;;;;19.83;3.90;;;;;;;;;;5084642;28;20031;-67
2022/05/21 04:03:34;;;;;;;18.48;4.35;;;;;;;;;;5085721;28;20047;-66
2022/05/21 04:06:00;;;;;;;21.30;4.60;;;;;;;;;;5063947;28;20368;-66
2022/05/21 04:08:26;;;;;;;18.33;3.95;;;;;;;;;;5079027;28;20386;-68
2022/05/21 04:10:52;;;;;;;14.10;3.30;;;;;;;;;;5084532;28;20048;-67
2022/05/21 04:13:17;;;;;;;21.17;4.13;;;;;;;;;;5083867;28;20036;-68
2022/05/21 04:15:43;;;;;;;16.88;4.22;;;;;;;;;;5084670;28;20020;-67
2022/05/21 04:18:08;;;;;;;22.35;4.88;;;;;;;;;;5066106;28;20322;-66
2022/05/21 04:20:33;;;;;;;16.73;4.38;;;;;;;;;;5085554;28;20024;-67
2022/05/21 04:22:58;;;;;;;16.40;3.80;;;;;;;;;;5091809;28;20024;-67
2022/05/21 04:25:24;;;;;;;19.58;3.60;;;;;;;;;;5083282;28;20495;-67
2022/05/21 04:27:50;;;;;;;18.83;3.42;;;;;;;;;;5083955;28;20066;-67
2022/05/21 04:30:20;;;;;;;20.95;4.20;;;;;;;;;;5105364;28;20088;-66
2022/05/21 04:32:46;;;;;;;18.17;3.42;;;;;;;;;;5097356;28;20023;-66
2022/05/21 04:35:11;;;;;;;16.15;3.53;;;;;;;;;;5105023;28;20135;-68
2022/05/21 04:37:37;;;;;;;19.85;4.00;;;;;;;;;;5100522;28;20042;-67
2022/05/21 04:40:07;;;;;;;21.02;4.05;;;;;;;;;;5101377;28;20035;-68
2022/05/21 04:42:32;;;;;;;23.33;4.05;;;;;;;;;;5103751;28;20023;-67
2022/05/21 04:44:58;;;;;;;22.60;3.97;;;;;;;;;;5102789;28;20023;-67
2022/05/21 04:47:23;;;;;;;18.58;3.42;;;;;;;;;;5103785;28;20024;-67
2022/05/21 04:49:49;;;;;;;19.55;4.47;;;;;;;;;;5103916;28;20031;-65
2022/05/21 04:52:14;;;;;;;19.27;4.00;;;;;;;;;;5098278;28;20507;-68
2022/05/21 04:54:40;;;;;;;19.52;4.07;;;;;;;;;;5103768;28;20047;-67
2022/05/21 04:57:05;;;;;;;18.80;4.00;;;;;;;;;;5101953;28;20492;-66
2022/05/21 04:59:30;;;;;;;16.00;4.07;;;;;;;;;;5103623;28;20383;-68
2022/05/21 05:01:56;;;;;;;17.85;3.65;;;;;;;;;;5103941;28;20462;-67
2022/05/21 05:04:22;;;;;;;16.48;4.80;;;;;;;;;;5069233;28;20031;-66
2022/05/21 05:06:47;;;;;;;21.48;3.88;;;;;;;;;;5076547;28;20473;-67
2022/05/21 05:09:12;;;;;;;20.38;3.75;;;;;;;;;;5082394;28;20017;-67
2022/05/21 05:11:38;;;;;;;16.90;3.70;;;;;;;;;;5083249;28;20092;-69
2022/05/21 05:14:03;;;;;;;17.05;3.83;;;;;;;;;;5079769;28;20035;-68
2022/05/21 05:16:28;;;;;;;23.98;5.05;;;;;;;;;;5084510;28;20027;-68
2022/05/21 05:18:54;;;;;;;16.30;3.75;;;;;;;;;;5080771;28;20024;-67
2022/05/21 05:21:19;;;;;;;16.38;3.55;;;;;;;;;;5082267;28;20584;-67
2022/05/21 05:23:44;;;;;;;19.70;4.60;;;;;;;;;;5082261;28;20023;-68
2022/05/21 05:26:10;;;;;;;17.63;3.95;;;;;;;;;;5104490;28;20482;-67
2022/05/21 05:28:35;;;;;;;20.73;4.28;;;;;;;;;;5107139;28;20080;-67
2022/05/21 05:31:00;;;;;;;16.38;4.00;;;;;;;;;;5108696;28;20506;-67
2022/05/21 05:33:26;;;;;;;21.00;3.67;;;;;;;;;;5109106;28;20039;-68
2022/05/21 05:35:52;;;;;;;17.05;4.18;;;;;;;;;;5110031;28;20016;-67
2022/05/21 05:38:19;;;;;;;22.10;3.92;;;;;;;;;;5102577;28;20051;-67
2022/05/21 05:40:46;;;;;;;17.95;4.07;;;;;;;;;;5107180;28;20019;-66
2022/05/21 05:43:12;;;;;;;22.42;3.88;;;;;;;;;;5109048;28;20440;-66
2022/05/21 05:45:37;;;;;;;16.45;3.90;;;;;;;;;;5109550;28;20370;-67
2022/05/21 05:48:03;;;;;;;16.60;4.18;;;;;;;;;;5107664;28;20046;-67
2022/05/21 05:50:28;;;;;;;17.15;4.10;;;;;;;;;;5107978;28;20068;-67
2022/05/21 05:52:54;;;;;;;19.67;3.83;;;;;;;;;;5103053;28;20046;-66
2022/05/21 05:55:20;;;;;;;13.55;3.67;;;;;;;;;;5104204;28;20106;-66
2022/05/21 05:57:49;;;;;;;19.92;4.07;;;;;;;;;;5109777;27;20457;-67
2022/05/21 06:00:14;;;;;;;20.20;3.80;;;;;;;;;;5100689;28;20132;-67
2022/05/21 06:02:58;;;;;;;17.63;3.20;;;;;;;;;;5087294;28;20028;-67
2022/05/21 06:05:24;;;;;;;21.13;4.10;;;;;;;;;;5087045;28;20024;-68
2022/05/21 06:07:51;;;;;;;18.95;4.03;;;;;;;;;;5083344;28;20020;-67
2022/05/21 06:10:19;;;;;;;19.33;4.20;;;;;;;;;;5092119;28;20052;-67
2022/05/21 06:12:46;;;;;;;18.75;4.30;;;;;;;;;;5108668;28;20020;-67
2022/05/21 06:15:12;;;;;;;16.92;3.20;;;;;;;;;;5107280;28;20099;-67
2022/05/21 06:17:38;;;;;;;15.70;3.78;;;;;;;;;;5105803;28;20492;-67
2022/05/21 06:20:04;;;;;;;16.80;3.88;;;;;;;;;;5105081;27;20031;-66
2022/05/21 06:22:30;;;;;;;21.02;4.43;;;;;;;;;;5085705;28;20119;-67
2022/05/21 06:24:55;;;;;;;25.75;4.88;;;;;;;;;;5108231;28;20031;-67
2022/05/21 06:27:20;;;;;;;16.85;3.80;;;;;;;;;;5106153;28;20114;-65
2022/05/21 06:29:46;;;;;;;17.75;4.30;;;;;;;;;;5106746;28;20020;-68
2022/05/21 06:32:12;;;;;;;18.13;3.45;;;;;;;;;;5105811;27;20018;-66
2022/05/21 06:34:37;;;;;;;20.92;3.55;;;;;;;;;;5107118;28;20024;-67
2022/05/21 06:37:04;;;;;;;18.73;3.90;;;;;;;;;;5100025;28;20034;-67
2022/05/21 06:39:30;;;;;;;17.90;3.88;;;;;;;;;;5105438;28;20411;-67
2022/05/21 06:41:55;;;;;;;17.40;3.67;;;;;;;;;;5104827;28;20054;-67
2022/05/21 06:44:21;;;;;;;21.75;4.50;;;;;;;;;;5097469;28;20650;-67
2022/05/21 06:46:47;;;;;;;15.38;3.78;;;;;;;;;;5085724;28;20031;-67
2022/05/21 06:49:12;;;;;;;21.05;5.07;;;;;;;;;;5065862;28;20309;-67
2022/05/21 06:51:40;;;;;;;19.23;3.83;;;;;;;;;;5083353;28;20027;-67
2022/05/21 06:54:06;;;;;;;23.58;4.68;;;;;;;;;;5061680;28;20046;-67
2022/05/21 06:56:34;;;;;;;21.33;4.68;;;;;;;;;;5090942;28;20657;-66
2022/05/21 06:59:01;;;;;;;21.00;4.55;;;;;;;;;;5103633;28;20466;-66
2022/05/21 07:01:26;;;;;;;13.15;3.22;;;;;;;;;;5103806;28;20027;-66
2022/05/21 07:03:51;;;;;;;16.85;4.30;;;;;;;;;;5104258;28;20034;-66
2022/05/21 07:09:02;;;;;;;17.15;3.40;;;;;;;;;;5102608;28;20596;-67
2022/05/21 07:11:27;;;;;;;16.20;4.20;;;;;;;;;;5103298;28;20050;-67
2022/05/21 07:13:52;;;;;;;20.02;3.67;;;;;;;;;;5103880;28;20032;-66
2022/05/21 07:16:17;;;;;;;17.60;3.60;;;;;;;;;;5098812;28;20485;-68
2022/05/21 07:18:43;;;;;;;21.00;3.42;;;;;;;;;;5083605;28;20035;-66
2022/05/21 07:21:10;;;;;;;18.08;3.85;;;;;;;;;;5082677;28;20051;-67
2022/05/21 07:23:36;;;;;;;21.30;4.10;;;;;;;;;;5079614;28;20020;-67
2022/05/21 07:26:02;;;;;;;16.95;3.80;;;;;;;;;;5085338;28;20035;-67
2022/05/21 07:28:27;;;;;;;16.27;2.97;;;;;;;;;;5065601;28;20028;-67
2022/05/21 07:30:53;;;;;;;21.73;4.35;;;;;;;;;;5083705;28;20405;-65
2022/05/21 07:33:19;;;;;;;18.42;4.32;;;;;;;;;;5080373;28;20032;-67
2022/05/21 07:35:44;;;;;;;19.35;4.10;;;;;;;;;;5086005;28;20062;-68
2022/05/21 07:38:11;;;;;;;16.58;3.90;;;;;;;;;;5087680;28;20405;-66
2022/05/21 07:40:37;;;;;;;16.65;3.40;;;;;;;;;;5102446;28;20111;-67
2022/05/21 07:43:15;;;;;;;15.70;3.47;;;;;;;;;;5106649;28;20095;-67
2022/05/21 07:45:42;;;;;;;15.57;3.70;;;;;;;;;;5092299;28;20020;-67
2022/05/21 07:48:09;;;;;;;16.92;4.05;;;;;;;;;;5085320;28;20090;-67
2022/05/21 07:50:35;;;;;;;21.20;4.28;;;;;;;;;;5085980;28;20028;-67
2022/05/21 07:53:00;;;;;;;17.08;4.18;;;;;;;;;;5081320;28;20031;-67
2022/05/21 07:55:25;;;;;;;13.85;3.78;;;;;;;;;;5083386;28;20024;-68
2022/05/21 07:57:51;;;;;;;21.05;4.13;;;;;;;;;;5084379;28;20104;-68
2022/05/21 08:00:18;;;;;;;15.90;4.38;;;;;;;;;;5081157;28;20024;-66
2022/05/21 08:02:45;;;;;;;22.35;4.47;;;;;;;;;;5083771;28;20020;-68
2022/05/21 08:05:10;;;;;;;20.13;4.47;;;;;;;;;;5084039;28;20501;-67
2022/05/21 08:07:35;;;;;;;20.80;3.88;;;;;;;;;;5081515;28;20111;-66
2022/05/21 08:10:00;;;;;;;19.45;4.78;;;;;;;;;;5102840;28;20019;-67
2022/05/21 08:12:26;;;;;;;14.88;3.35;;;;;;;;;;5103814;28;20028;-66
2022/05/21 08:14:51;;;;;;;13.15;3.70;;;;;;;;;;5085287;28;20114;-67
2022/05/21 08:17:16;;;;;;;16.88;3.88;;;;;;;;;;5101398;28;20427;-67
2022/05/21 08:19:43;;;;;;;18.17;4.22;;;;;;;;;;5102295;28;20027;-67
2022/05/21 08:27:36;;;;;;;25.25;4.40;;;;;;;;;;5102812;28;20026;-66
2022/05/21 08:30:02;;;;;;;19.15;4.68;;;;;;;;;;5105147;28;20015;-66
2022/05/21 08:32:27;;;;;;;20.13;4.00;;;;;;;;;;5101575;28;20299;-67
2022/05/21 08:34:53;;;;;;;18.40;3.95;;;;;;;;;;5103114;28;20034;-66
2022/05/21 08:37:19;;;;;;;16.20;3.67;;;;;;;;;;5097523;28;20019;-67
2022/05/21 08:39:44;;;;;;;12.85;3.45;;;;;;;;;;5099281;28;20062;-67
2022/05/21 08:42:13;;;;;;;17.33;3.92;;;;;;;;;;5100690;28;20038;-66
2022/05/21 08:44:43;;;;;;;19.95;3.88;;;;;;;;;;5103424;28;20015;-66
2022/05/21 08:47:11;;;;;;;14.60;3.85;;;;;;;;;;5103032;28;20015;-66
2022/05/21 08:49:37;;;;;;;16.88;3.75;;;;;;;;;;5101721;28;20023;-67
2022/05/21 08:52:17;;;;;;;18.48;4.22;;;;;;;;;;5097238;28;20358;-65
2022/05/21 08:54:43;;;;;;;14.40;3.63;;;;;;;;;;5101810;28;20051;-66
2022/05/21 08:57:14;;;;;;;17.88;4.13;;;;;;;;;;5102140;28;20026;-66
2022/05/21 08:59:43;;;;;;;20.10;4.13;;;;;;;;;;5102695;28;20054;-66
2022/05/21 09:02:11;;;;;;;16.65;3.70;;;;;;;;;;5087901;28;20081;-66
2022/05/21 09:04:37;;;;;;;16.23;3.92;;;;;;;;;;5087832;28;20111;-67
2022/05/21 09:07:04;;;;;;;19.42;4.15;;;;;;;;;;5083554;28;20546;-67
2022/05/21 09:09:29;;;;;;;24.25;4.28;;;;;;;;;;5084137;28;20307;-66
2022/05/21 09:11:55;;;;;;;16.43;4.40;;;;;;;;;;5087698;28;20063;-66
2022/05/21 09:14:35;;;;;;;15.82;3.22;;;;;;;;;;5083969;28;20302;-67
2022/05/21 09:17:01;;;;;;;13.27;3.58;;;;;;;;;;5086301;28;20532;-67
2022/05/21 09:19:44;;;;;;;17.60;4.35;;;;;;;;;;5085601;28;20032;-66
2022/05/21 09:22:15;;;;;;;17.05;4.22;;;;;;;;;;5082393;28;20016;-67
2022/05/21 09:24:51;;;;;;;16.70;4.07;;;;;;;;;;5069857;28;20572;-66
2022/05/21 09:27:20;;;;;;;18.83;3.90;;;;;;;;;;5082170;28;20047;-66
2022/05/21 09:29:45;;;;;;;19.17;3.92;;;;;;;;;;5089546;28;20016;-68
2022/05/21 09:32:30;;;;;;;13.50;4.43;;;;;;;;;;5086851;28;20043;-67
2022/05/21 09:34:59;;;;;;;17.67;4.18;;;;;;;;;;5087419;28;20044;-67
2022/05/21 09:37:27;;;;;;;15.18;3.60;;;;;;;;;;5078889;28;20047;-67
2022/05/21 09:39:52;;;;;;;17.48;3.75;;;;;;;;;;5086807;28;20490;-67
2022/05/21 09:45:23;;;;;;;21.58;4.30;;;;;;;;;;5086970;28;20062;-67
2022/05/21 09:47:53;;;;;;;19.35;4.47;;;;;;;;;;5105174;28;20038;-67
2022/05/21 09:50:23;;;;;;;18.60;4.72;;;;;;;;;;5104015;28;20200;-67
2022/05/21 09:52:49;;;;;;;17.80;4.18;;;;;;;;;;5093698;28;20023;-67
2022/05/21 09:55:19;;;;;;;22.10;4.78;;;;;;;;;;5101594;28;20100;-66
2022/05/21 09:57:47;;;;;;;17.98;4.50;;;;;;;;;;5107607;28;20034;-67
2022/05/21 10:00:31;;;;;;;12.45;3.92;;;;;;;;;;5108503;28;20046;-66
2022/05/21 10:02:57;;;;;;;18.35;4.13;;;;;;;;;;5107765;28;20016;-65
2022/05/21 10:05:24;;;;;;;20.20;4.45;;;;;;;;;;5106351;28;20016;-67
2022/05/21 10:10:59;;;;;;;20.48;4.93;;;;;;;;;;5106017;28;20844;-67
2022/05/21 10:13:45;;;;;;;18.20;4.07;;;;;;;;;;5106200;28;20489;-66
2022/05/21 10:16:10;;;;;;;14.10;3.83;;;;;;;;;;5106866;28;20086;-66
2022/05/21 10:18:47;;;;;;;15.63;3.75;;;;;;;;;;5105361;28;20883;-65
2022/05/21 10:21:28;;;;;;;17.10;3.35;;;;;;;;;;5105307;28;20081;-65
2022/05/21 10:24:17;;;;;;;23.25;4.22;;;;;;;;;;5106594;28;20509;-66
2022/05/21 10:26:42;;;;;;;17.00;3.95;;;;;;;;;;5093193;28;20102;-65
2022/05/21 10:29:22;;;;;;;18.85;3.75;;;;;;;;;;5107329;27;20054;-67
2022/05/21 10:32:06;;;;;;;13.02;3.70;;;;;;;;;;5108912;28;20022;-65
2022/05/21 10:34:34;;;;;;;17.05;3.75;;;;;;;;;;5105240;28;20030;-66
2022/05/21 10:37:05;;;;;;;16.67;3.70;;;;;;;;;;5101558;28;20035;-66
2022/05/21 10:39:49;;;;;;;16.50;4.07;;;;;;;;;;5103872;28;20590;-66
2022/05/21 10:42:27;;;;;;;17.77;4.28;;;;;;;;;;5105516;28;20030;-67
2022/05/21 10:44:52;;;;;;;14.93;3.75;;;;;;;;;;5104865;28;20125;-66
2022/05/21 10:47:18;;;;;;;17.13;4.17;;;;;;;;;;5105534;28;20481;-65
2022/05/21 10:50:08;;;;;;;14.27;3.08;;;;;;;;;;5088738;28;20413;-67
2022/05/21 10:52:44;;;;;;;15.07;3.65;;;;;;;;;;5077808;28;20016;-66
2022/05/21 10:55:16;;;;;;;19.40;3.70;;;;;;;;;;5082778;28;20020;-66
2022/05/21 10:57:44;;;;;;;14.88;3.70;;;;;;;;;;5084023;28;20067;-65
2022/05/21 11:00:13;;;;;;;15.48;3.55;;;;;;;;;;5084261;28;20023;-67
2022/05/21 11:02:44;;;;;;;16.83;3.63;;;;;;;;;;5082518;28;20471;-65
2022/05/21 11:05:09;;;;;;;13.02;3.08;;;;;;;;;;5083414;28;20020;-67
2022/05/21 11:07:52;;;;;;;13.45;3.38;;;;;;;;;;5078305;28;20008;-66
2022/05/21 11:10:37;;;;;;;9.95;3.22;;;;;;;;;;5084152;28;20044;-66
2022/05/21 11:13:07;;;;;;;16.35;4.20;;;;;;;;;;5084693;28;20024;-66
2022/05/21 11:15:38;;;;;;;10.70;2.85;;;;;;;;;;5082575;28;20020;-67
2022/05/21 11:18:09;;;;;;;16.92;4.13;;;;;;;;;;5091429;28;20023;-66
2022/05/21 11:20:36;;;;;;;10.10;3.17;;;;;;;;;;5102978;28;20081;-66
2022/05/21 11:23:11;;;;;;;14.75;3.60;;;;;;;;;;5100608;28;20015;-66
2022/05/21 11:25:43;;;;;;;17.98;3.75;;;;;;;;;;5099916;28;20098;-67
2022/05/21 11:28:23;;;;;;;17.38;4.03;;;;;;;;;;5083025;28;20020;-68
2022/05/21 11:30:51;;;;;;;16.52;3.33;;;;;;;;;;5084892;28;20451;-66
2022/05/21 11:39:12;;;;;;;15.45;3.13;;;;;;;;;;5083629;28;20099;-67
2022/05/21 11:41:58;;;;;;;13.55;3.38;;;;;;;;;;5082716;28;20127;-66
2022/05/21 11:47:40;;;;;;;12.73;2.90;;;;;;;;;;5084172;28;20081;-65
2022/05/21 11:50:13;;;;;;;15.82;3.53;;;;;;;;;;5104563;28;20026;-66
2022/05/21 11:52:38;;;;;;;;;;;;;;;;;;5099914;28;20012;-67
2022/05/21 11:55:21;;;;;;;15.10;3.67;;;;;;;;;;5081511;28;19939;-67
2022/05/21 11:57:46;;;;;;;;;;;;;;;;;;5085748;28;20747;-66
2022/05/21 12:00:14;;;;;;;14.32;3.80;;;;;;;;;;5086717;28;20343;-67
2022/05/21 12:02:55;;;;;;;14.80;3.13;;;;;;;;;;5096759;28;20032;-67
2022/05/21 12:05:26;;;;;;;11.57;3.08;;;;;;;;;;5106927;28;20507;-64
2022/05/21 12:07:53;;;;;;;15.48;3.75;;;;;;;;;;5099626;28;20119;-66
2022/05/21 12:10:26;;;;;;;14.45;3.75;;;;;;;;;;5101333;28;20030;-66
2022/05/21 12:13:16;;;;;;;14.13;3.63;;;;;;;;;;5104889;28;20054;-66
2022/05/21 12:15:48;;;;;;;13.80;3.58;;;;;;;;;;5106586;28;20023;-66
2022/05/21 12:18:26;;;;;;;16.13;3.38;;;;;;;;;;5106907;28;20095;-66
2022/05/21 12:20:51;;;;;;;12.25;3.70;;;;;;;;;;5102998;28;20031;-67
2022/05/21 12:23:26;;;;;;;12.43;3.50;;;;;;;;;;5099236;28;20020;-67
2022/05/21 12:25:54;;;;;;;14.48;3.45;;;;;;;;;;5103298;28;20045;-67
2022/05/21 12:28:20;;;;;;;14.80;3.25;;;;;;;;;;5102742;28;20076;-67
2022/05/21 12:30:45;;;;;;;12.10;3.13;;;;;;;;;;5103379;28;20487;-65
2022/05/21 12:33:22;;;;;;;16.08;3.55;;;;;;;;;;5104232;28;20053;-66
2022/05/21 12:35:51;;;;;;;16.27;4.30;;;;;;;;;;5104445;28;20089;-66
2022/05/21 12:38:30;;;;;;;12.60;3.83;;;;;;;;;;5092527;28;20049;-65
2022/05/21 12:41:14;;;;;;;14.57;4.18;;;;;;;;;;5085248;28;20027;-66
2022/05/21 12:43:41;;;;;;;15.68;3.50;;;;;;;;;;5082872;28;20027;-67
2022/05/21 12:46:16;;;;;;;14.27;3.05;;;;;;;;;;5070099;28;20112;-66
2022/05/21 12:48:41;;;;;;;16.60;3.85;;;;;;;;;;5085449;28;20092;-66
2022/05/21 12:51:08;;;;;;;11.77;2.88;;;;;;;;;;5099876;28;20403;-67
2022/05/21 12:53:43;;;;;;;13.70;3.28;;;;;;;;;;5096950;28;20028;-65
2022/05/21 12:56:24;;;;;;;12.15;3.75;;;;;;;;;;5086682;28;20255;-65
2022/05/21 12:59:08;;;;;;;15.15;3.38;;;;;;;;;;5101171;28;20240;-67
2022/05/21 13:01:34;;;;;;;13.98;3.05;;;;;;;;;;5103471;28;20023;-66
2022/05/21 13:04:00;;;;;;;10.60;3.00;;;;;;;;;;5101523;28;20059;-66
2022/05/21 13:06:28;;;;;;;13.52;3.42;;;;;;;;;;5102434;28;20488;-67
2022/05/21 13:08:53;;;;;;;13.57;3.47;;;;;;;;;;5096571;28;20047;-66
2022/05/21 13:11:24;;;;;;;13.80;3.40;;;;;;;;;;5105862;28;20082;-66
2022/05/21 13:14:00;;;;;;;13.82;3.22;;;;;;;;;;5102036;28;20551;-66
2022/05/21 13:16:27;;;;;;;14.40;3.78;;;;;;;;;;5103459;28;20104;-66
2022/05/21 13:18:55;;;;;;;13.73;2.95;;;;;;;;;;5102705;28;20043;-66
2022/05/21 13:21:30;;;;;;;15.38;3.55;;;;;;;;;;5103066;28;20556;-65
2022/05/21 13:24:14;;;;;;;15.27;3.10;;;;;;;;;;5079226;28;20031;-67
2022/05/21 13:26:39;;;;;;;15.02;3.40;;;;;;;;;;5101367;28;20016;-66
2022/05/21 13:29:12;;;;;;;10.88;3.13;;;;;;;;;;5103755;28;20024;-65
2022/05/21 13:31:38;;;;;;;11.95;3.08;;;;;;;;;;5100766;28;20085;-64
2022/05/21 13:34:03;;;;;;;11.63;3.33;;;;;;;;;;5102881;28;20024;-68
2022/05/21 13:36:31;;;;;;;11.63;4.03;;;;;;;;;;5102374;28;20113;-65
2022/05/21 13:38:57;;;;;;;16.67;4.07;;;;;;;;;;5097166;28;20386;-64
2022/05/21 13:41:31;;;;;;;18.65;3.95;;;;;;;;;;5103767;28;20452;-66
2022/05/21 13:43:57;;;;;;;12.73;3.30;;;;;;;;;;5100963;28;20124;-67
2022/05/21 13:46:23;;;;;;;16.40;4.43;;;;;;;;;;5103184;28;20106;-66
2022/05/21 13:48:52;;;;;;;7.97;2.83;;;;;;;;;;5102386;28;20012;-65
2022/05/21 13:51:18;;;;;;;11.02;2.70;;;;;;;;;;5105012;28;20031;-67
2022/05/21 13:53:46;;;;;;;14.43;3.72;;;;;;;;;;5103259;28;20685;-66
2022/05/21 13:56:42;;;;;;;14.20;3.45;;;;;;;;;;5106986;28;20083;-66
2022/05/21 13:59:16;;;;;;;13.50;3.47;;;;;;;;;;5089381;28;20363;-66
2022/05/21 14:01:44;;;;;;;15.98;3.47;;;;;;;;;;5105227;28;20019;-66
2022/05/21 14:04:10;;;;;;;12.52;3.20;;;;;;;;;;5108011;28;20080;-65
2022/05/21 14:06:40;;;;;;;13.10;3.13;;;;;;;;;;5103208;28;20020;-66
2022/05/21 14:09:06;;;;;;;17.65;3.53;;;;;;;;;;5096125;28;20012;-66
2022/05/21 14:11:31;;;;;;;12.82;3.55;;;;;;;;;;5086876;28;20154;-67
2022/05/21 14:14:15;;;;;;;11.57;3.33;;;;;;;;;;5083902;28;20058;-66
2022/05/21 14:16:42;;;;;;;11.50;3.05;;;;;;;;;;5086145;28;20032;-66
2022/05/21 14:19:16;;;;;;;13.05;3.13;;;;;;;;;;5086799;28;20116;-65
2022/05/21 14:22:00;;;;;;;9.88;2.88;;;;;;;;;;5082231;28;20051;-66
2022/05/21 14:24:27;;;;;;;11.50;3.28;;;;;;;;;;5083665;28;20016;-66
2022/05/21 14:26:57;;;;;;;9.52;2.50;;;;;;;;;;5085111;28;20019;-66
2022/05/21 14:29:35;;;;;;;12.23;2.70;;;;;;;;;;5086142;28;20112;-67
2022/05/21 14:32:18;;;;;;;8.82;3.03;;;;;;;;;;5082754;28;20016;-67
2022/05/21 14:34:43;;;;;;;;;;;;;;;;;;5083821;28;20499;-65
2022/05/21 14:37:25;;;;;;;14.07;6.80;;;;;;;;;;5092292;28;20279;-66
2022/05/21 14:39:51;;;;;;;17.65;6.85;;;;;;;;;;5104749;28;20487;-66
2022/05/21 14:42:16;;;;;;;17.55;10.63;;;;;;;;;;5108904;28;20063;-64
2022/05/21 14:44:42;;;;;;;10.73;3.63;;;;;;;;;;5097622;28;20051;-63
2022/05/21 14:52:49;;;;;;;13.45;3.83;;;;;;;;;;5103668;28;20041;-64
2022/05/21 14:52:51;;;;;;;12.52;3.30;;;;;;;;;;5074731;28;20192;-63
2022/05/21 14:55:20;;;;;;;17.23;3.60;;;;;;;;;;5080056;28;20024;-63
2022/05/21 14:57:46;;;;;;;14.02;4.00;;;;;;;;;;5081387;28;20096;-62
2022/05/21 15:00:12;;;;;;;11.15;3.55;;;;;;;;;;5081530;28;20400;-62
2022/05/21 15:02:38;;;;;;;10.20;3.97;;;;;;;;;;5081256;28;20048;-63
2022/05/21 15:05:04;;;;;;;14.35;3.40;;;;;;;;;;5078098;28;20418;-63
2022/05/21 15:07:30;;;;;;;13.80;3.60;;;;;;;;;;5073403;28;20078;-63
2022/05/21 15:09:56;;;;;;;8.68;2.90;;;;;;;;;;5076754;28;20502;-63
2022/05/21 15:12:21;;;;;;;18.35;3.65;;;;;;;;;;5080260;28;20418;-62
2022/05/21 15:14:47;;;;;;;13.25;3.75;;;;;;;;;;5076913;28;20142;-62